Wetterstation Oberdrees
Wetterdaten: aktuell Samstag, 18.05.2024 06:45
Datum Zeit Temp. A. Feuchte A. Luftdruck Regen Wind Richtung Richtung Taupunkt Windchill Windben
18.05.2024 06:45 13,8 C 95 % 1010,4 hPa 0,0 l/m 3,5 km/h (1 Bft) W 277 13,0 C 13,8 C 9,7 km/h (2 Bft)
18.05.2024 06:40 13,8 C 95 % 1010,4 hPa 0,2 l/m 4,1 km/h (1 Bft) W 275 13,0 C 13,8 C 12,9 km/h (3 Bft)
18.05.2024 06:35 13,9 C 95 % 1010,4 hPa 0,0 l/m 3,7 km/h (1 Bft) W 275 13,1 C 13,9 C 6,4 km/h (2 Bft)
18.05.2024 06:30 13,9 C 95 % 1010,3 hPa 0,2 l/m 3,2 km/h (1 Bft) W-NW 290 13,1 C 13,9 C 11,3 km/h (2 Bft)
18.05.2024 06:25 13,9 C 95 % 1010,4 hPa 0,2 l/m 2,9 km/h (1 Bft) W-NW 288 13,1 C 13,9 C 6,4 km/h (2 Bft)
18.05.2024 06:20 13,9 C 95 % 1010,3 hPa 0,0 l/m 4,8 km/h (1 Bft) W-NW 284 13,1 C 13,9 C 11,3 km/h (2 Bft)
18.05.2024 06:15 13,9 C 95 % 1010,3 hPa 0,0 l/m 4,7 km/h (1 Bft) W-SW 251 13,1 C 13,9 C 11,3 km/h (2 Bft)
18.05.2024 06:10 13,9 C 94 % 1010,2 hPa 0,0 l/m 4,5 km/h (1 Bft) W 280 12,9 C 13,9 C 11,3 km/h (2 Bft)
18.05.2024 06:05 14,0 C 94 % 1010,3 hPa 0,0 l/m 3,4 km/h (1 Bft) W-NW 302 13,0 C 14,0 C 8,0 km/h (2 Bft)
18.05.2024 06:00 14,0 C 94 % 1010,2 hPa 0,0 l/m 3,6 km/h (1 Bft) NW 314 13,0 C 14,0 C 6,4 km/h (2 Bft)
18.05.2024 05:55 13,9 C 94 % 1010,1 hPa 0,0 l/m 3,1 km/h (1 Bft) NW 318 12,9 C 13,9 C 6,4 km/h (2 Bft)
18.05.2024 05:50 14,0 C 94 % 1010,1 hPa 0,0 l/m 2,0 km/h (1 Bft) NW 319 13,0 C 14,0 C 8,0 km/h (2 Bft)
18.05.2024 05:45 14,0 C 94 % 1010,1 hPa 0,0 l/m 1,9 km/h (1 Bft) NW 310 13,0 C 14,0 C 4,8 km/h (1 Bft)
18.05.2024 05:40 13,9 C 94 % 1010,1 hPa 0,0 l/m 5,4 km/h (2 Bft) NW 311 12,9 C 13,9 C 12,9 km/h (3 Bft)
18.05.2024 05:35 13,9 C 94 % 1010,0 hPa 0,0 l/m 1,5 km/h (1 Bft) W 270 12,9 C 13,9 C 6,4 km/h (2 Bft)
18.05.2024 05:30 14,0 C 94 % 1010,1 hPa 0,0 l/m 0,8 km/h (0 Bft) W 270 13,0 C 14,0 C 3,2 km/h (1 Bft)
18.05.2024 05:25 14,0 C 94 % 1010,0 hPa 0,0 l/m 0,6 km/h (0 Bft) W 270 13,0 C 14,0 C 3,2 km/h (1 Bft)
18.05.2024 05:20 14,0 C 94 % 1010,0 hPa 0,0 l/m 0,0 km/h (0 Bft) W 270 13,0 C 14,0 C 1,6 km/h (1 Bft)
18.05.2024 05:15 14,0 C 93 % 1010,0 hPa 0,0 l/m 0,0 km/h (0 Bft) W 270 12,9 C 14,0 C 0,0 km/h (0 Bft)
18.05.2024 05:10 14,0 C 93 % 1009,8 hPa 0,0 l/m 0,8 km/h (0 Bft) W 270 12,9 C 14,0 C 3,2 km/h (1 Bft)
18.05.2024 05:05 13,9 C 93 % 1009,9 hPa 0,0 l/m 2,2 km/h (1 Bft) W 270 12,8 C 13,9 C 9,7 km/h (2 Bft)
18.05.2024 05:00 13,9 C 94 % 1009,8 hPa 0,0 l/m 2,1 km/h (1 Bft) W 270 12,9 C 13,9 C 4,8 km/h (1 Bft)
18.05.2024 04:55 13,9 C 94 % 1009,7 hPa 0,0 l/m 2,5 km/h (1 Bft) W 270 12,9 C 13,9 C 4,8 km/h (1 Bft)
18.05.2024 04:50 13,9 C 94 % 1009,7 hPa 0,0 l/m 2,3 km/h (1 Bft) W 270 12,9 C 13,9 C 4,8 km/h (1 Bft)
18.05.2024 04:45 13,9 C 94 % 1009,7 hPa 0,0 l/m 2,9 km/h (1 Bft) W 270 12,9 C 13,9 C 6,4 km/h (2 Bft)
18.05.2024 04:40 13,9 C 94 % 1009,6 hPa 0,0 l/m 1,9 km/h (1 Bft) W 270 12,9 C 13,9 C 4,8 km/h (1 Bft)
18.05.2024 04:35 13,9 C 94 % 1009,7 hPa 0,0 l/m 2,6 km/h (1 Bft) W 270 12,9 C 13,9 C 6,4 km/h (2 Bft)
18.05.2024 04:30 13,9 C 94 % 1009,7 hPa 0,0 l/m 2,8 km/h (1 Bft) W 271 12,9 C 13,9 C 11,3 km/h (2 Bft)
18.05.2024 04:25 13,9 C 94 % 1009,5 hPa 0,0 l/m 0,7 km/h (0 Bft) W 269 12,9 C 13,9 C 3,2 km/h (1 Bft)
18.05.2024 04:20 13,9 C 94 % 1009,5 hPa 0,0 l/m 0,0 km/h (0 Bft) W 269 12,9 C 13,9 C 1,6 km/h (1 Bft)
18.05.2024 04:15 13,9 C 94 % 1009,4 hPa 0,0 l/m 1,9 km/h (1 Bft) W 269 12,9 C 13,9 C 6,4 km/h (2 Bft)
18.05.2024 04:10 13,9 C 94 % 1009,5 hPa 0,0 l/m 2,5 km/h (1 Bft) W 269 12,9 C 13,9 C 4,8 km/h (1 Bft)
18.05.2024 04:05 13,9 C 94 % 1009,5 hPa 0,0 l/m 2,5 km/h (1 Bft) W 269 12,9 C 13,9 C 6,4 km/h (2 Bft)
18.05.2024 04:00 13,9 C 94 % 1009,4 hPa 0,0 l/m 3,1 km/h (1 Bft) W 269 12,9 C 13,9 C 9,7 km/h (2 Bft)
18.05.2024 03:55 13,9 C 94 % 1009,4 hPa 0,0 l/m 4,3 km/h (1 Bft) W 269 12,9 C 13,9 C 9,7 km/h (2 Bft)
18.05.2024 03:50 13,9 C 94 % 1009,4 hPa 0,0 l/m 4,0 km/h (1 Bft) W 267 12,9 C 13,9 C 6,4 km/h (2 Bft)
18.05.2024 03:45 13,9 C 93 % 1009,3 hPa 0,0 l/m 4,9 km/h (1 Bft) W 263 12,8 C 13,9 C 9,7 km/h (2 Bft)
18.05.2024 03:40 13,9 C 94 % 1009,3 hPa 0,0 l/m 5,5 km/h (2 Bft) W-SW 254 12,9 C 13,9 C 11,3 km/h (2 Bft)
18.05.2024 03:35 14,0 C 93 % 1009,3 hPa 0,0 l/m 4,9 km/h (1 Bft) W 275 12,9 C 14,0 C 9,7 km/h (2 Bft)
18.05.2024 03:30 14,0 C 93 % 1009,2 hPa 0,0 l/m 5,5 km/h (2 Bft) W 269 12,9 C 14,0 C 11,3 km/h (2 Bft)
18.05.2024 03:25 14,1 C 94 % 1009,3 hPa 0,0 l/m 4,6 km/h (1 Bft) W 277 13,1 C 14,1 C 11,3 km/h (2 Bft)
18.05.2024 03:20 14,1 C 94 % 1009,2 hPa 0,0 l/m 4,6 km/h (1 Bft) W 275 13,1 C 14,1 C 11,3 km/h (2 Bft)
18.05.2024 03:15 14,2 C 94 % 1009,2 hPa 0,0 l/m 4,4 km/h (1 Bft) W 269 13,2 C 14,2 C 11,3 km/h (2 Bft)
18.05.2024 03:10 14,2 C 94 % 1009,1 hPa 0,0 l/m 4,3 km/h (1 Bft) W 267 13,2 C 14,2 C 11,3 km/h (2 Bft)
18.05.2024 03:05 14,2 C 94 % 1009,2 hPa 0,0 l/m 5,0 km/h (1 Bft) W 267 13,2 C 14,2 C 11,3 km/h (2 Bft)
18.05.2024 03:00 14,2 C 94 % 1009,2 hPa 0,0 l/m 4,7 km/h (1 Bft) W 266 13,2 C 14,2 C 9,7 km/h (2 Bft)
18.05.2024 02:55 14,3 C 94 % 1009,2 hPa 0,0 l/m 3,1 km/h (1 Bft) W 263 13,3 C 14,3 C 6,4 km/h (2 Bft)
18.05.2024 02:50 14,3 C 94 % 1009,2 hPa 0,0 l/m 1,4 km/h (1 Bft) W 271 13,3 C 14,3 C 6,4 km/h (2 Bft)
18.05.2024 02:45 14,3 C 94 % 1009,2 hPa 0,0 l/m 0,0 km/h (0 Bft) W 273 13,3 C 14,3 C 0,0 km/h (0 Bft)
18.05.2024 02:40 14,3 C 94 % 1009,1 hPa 0,0 l/m 0,0 km/h (0 Bft) W 273 13,3 C 14,3 C 0,0 km/h (0 Bft)
18.05.2024 02:35 14,3 C 94 % 1009,1 hPa 0,0 l/m 0,0 km/h (0 Bft) W 273 13,3 C 14,3 C 0,0 km/h (0 Bft)
18.05.2024 02:30 14,3 C 94 % 1009,2 hPa 0,0 l/m 0,0 km/h (0 Bft) W 273 13,3 C 14,3 C 0,0 km/h (0 Bft)
18.05.2024 02:25 14,3 C 94 % 1009,2 hPa 0,0 l/m 0,0 km/h (0 Bft) W 273 13,3 C 14,3 C 0,0 km/h (0 Bft)
18.05.2024 02:20 14,3 C 94 % 1009,2 hPa 0,0 l/m 0,0 km/h (0 Bft) W 273 13,3 C 14,3 C 0,0 km/h (0 Bft)
18.05.2024 02:15 14,4 C 94 % 1009,1 hPa 0,0 l/m 0,0 km/h (0 Bft) W 273 13,4 C 14,4 C 0,0 km/h (0 Bft)
18.05.2024 02:10 14,4 C 94 % 1009,1 hPa 0,0 l/m 0,0 km/h (0 Bft) W 273 13,4 C 14,4 C 1,6 km/h (1 Bft)
18.05.2024 02:05 14,4 C 94 % 1009,1 hPa 0,0 l/m 0,0 km/h (0 Bft) W 273 13,4 C 14,4 C 0,0 km/h (0 Bft)
18.05.2024 02:00 14,4 C 93 % 1009,0 hPa 0,0 l/m 0,0 km/h (0 Bft) W 273 13,3 C 14,4 C 0,0 km/h (0 Bft)
18.05.2024 01:55 14,4 C 93 % 1009,1 hPa 0,0 l/m 0,0 km/h (0 Bft) W 273 13,3 C 14,4 C 0,0 km/h (0 Bft)
18.05.2024 01:50 14,4 C 93 % 1009,1 hPa 0,0 l/m 0,2 km/h (0 Bft) W 273 13,3 C 14,4 C 1,6 km/h (1 Bft)
18.05.2024 01:45 14,4 C 93 % 1009,1 hPa 0,0 l/m 1,5 km/h (1 Bft) W 273 13,3 C 14,4 C 4,8 km/h (1 Bft)
18.05.2024 01:40 14,4 C 93 % 1009,0 hPa 0,0 l/m 1,4 km/h (1 Bft) W 273 13,3 C 14,4 C 4,8 km/h (1 Bft)
18.05.2024 01:35 14,4 C 93 % 1009,1 hPa 0,0 l/m 1,6 km/h (1 Bft) W 273 13,3 C 14,4 C 4,8 km/h (1 Bft)
18.05.2024 01:30 14,4 C 93 % 1009,0 hPa 0,0 l/m 1,8 km/h (1 Bft) W 273 13,3 C 14,4 C 4,8 km/h (1 Bft)
18.05.2024 01:25 14,5 C 93 % 1008,9 hPa 0,0 l/m 2,5 km/h (1 Bft) W 273 13,4 C 14,5 C 6,4 km/h (2 Bft)
18.05.2024 01:20 14,5 C 93 % 1008,9 hPa 0,0 l/m 3,5 km/h (1 Bft) W 273 13,4 C 14,5 C 9,7 km/h (2 Bft)
18.05.2024 01:15 14,6 C 93 % 1008,9 hPa 0,0 l/m 3,2 km/h (1 Bft) W 272 13,5 C 14,6 C 9,7 km/h (2 Bft)
18.05.2024 01:10 14,5 C 93 % 1008,7 hPa 0,0 l/m 4,8 km/h (1 Bft) W 270 13,4 C 14,5 C 9,7 km/h (2 Bft)
18.05.2024 01:05 14,6 C 93 % 1008,7 hPa 0,0 l/m 4,6 km/h (1 Bft) W 273 13,5 C 14,6 C 9,7 km/h (2 Bft)
18.05.2024 01:00 14,6 C 93 % 1008,7 hPa 0,0 l/m 4,7 km/h (1 Bft) W 274 13,5 C 14,6 C 11,3 km/h (2 Bft)
18.05.2024 00:55 14,6 C 93 % 1008,7 hPa 0,0 l/m 4,1 km/h (1 Bft) W 274 13,5 C 14,6 C 9,7 km/h (2 Bft)
18.05.2024 00:50 14,6 C 93 % 1008,7 hPa 0,0 l/m 4,6 km/h (1 Bft) W 273 13,5 C 14,6 C 12,9 km/h (3 Bft)
18.05.2024 00:45 14,6 C 93 % 1008,6 hPa 0,0 l/m 4,6 km/h (1 Bft) W 279 13,5 C 14,6 C 11,3 km/h (2 Bft)
18.05.2024 00:40 14,6 C 93 % 1008,5 hPa 0,0 l/m 3,7 km/h (1 Bft) W 274 13,5 C 14,6 C 6,4 km/h (2 Bft)
18.05.2024 00:35 14,6 C 93 % 1008,4 hPa 0,0 l/m 4,7 km/h (1 Bft) W 273 13,5 C 14,6 C 9,7 km/h (2 Bft)
18.05.2024 00:30 14,6 C 93 % 1008,5 hPa 0,0 l/m 5,7 km/h (2 Bft) W 267 13,5 C 14,6 C 11,3 km/h (2 Bft)
18.05.2024 00:25 14,6 C 93 % 1008,6 hPa 0,0 l/m 4,8 km/h (1 Bft) W 261 13,5 C 14,6 C 11,3 km/h (2 Bft)
18.05.2024 00:20 14,6 C 92 % 1008,5 hPa 0,0 l/m 5,8 km/h (2 Bft) W 264 13,3 C 14,6 C 11,3 km/h (2 Bft)
18.05.2024 00:15 14,6 C 92 % 1008,5 hPa 0,0 l/m 5,6 km/h (2 Bft) W 269 13,3 C 14,6 C 12,9 km/h (3 Bft)
18.05.2024 00:10 14,6 C 92 % 1008,5 hPa 0,0 l/m 5,7 km/h (2 Bft) W 268 13,3 C 14,6 C 12,9 km/h (3 Bft)
18.05.2024 00:05 14,6 C 92 % 1008,5 hPa 0,0 l/m 5,6 km/h (2 Bft) W 265 13,3 C 14,6 C 12,9 km/h (3 Bft)
18.05.2024 00:00 14,7 C 92 % 1008,5 hPa 0,0 l/m 5,7 km/h (2 Bft) W-SW 256 13,4 C 14,7 C 11,3 km/h (2 Bft)
17.05.2024 23:55 14,7 C 92 % 1008,4 hPa 0,0 l/m 5,3 km/h (1 Bft) W-SW 255 13,4 C 14,7 C 12,9 km/h (3 Bft)
17.05.2024 23:50 14,7 C 93 % 1008,5 hPa 0,0 l/m 7,3 km/h (2 Bft) W 266 13,6 C 14,2 C 14,5 km/h (3 Bft)
17.05.2024 23:45 14,7 C 93 % 1008,5 hPa 0,0 l/m 6,7 km/h (2 Bft) W-SW 258 13,6 C 14,5 C 16,1 km/h (3 Bft)
17.05.2024 23:40 14,7 C 93 % 1008,5 hPa 0,0 l/m 5,7 km/h (2 Bft) W-SW 254 13,6 C 14,7 C 11,3 km/h (2 Bft)
17.05.2024 23:35 14,6 C 93 % 1008,5 hPa 0,0 l/m 6,5 km/h (2 Bft) W-SW 252 13,5 C 14,6 C 12,9 km/h (3 Bft)
17.05.2024 23:30 14,6 C 93 % 1008,5 hPa 0,0 l/m 7,3 km/h (2 Bft) W 267 13,5 C 14,1 C 14,5 km/h (3 Bft)
17.05.2024 23:25 14,5 C 94 % 1008,5 hPa 0,0 l/m 6,0 km/h (2 Bft) W-SW 252 13,5 C 14,5 C 12,9 km/h (3 Bft)
17.05.2024 23:20 14,4 C 94 % 1008,4 hPa 0,0 l/m 5,2 km/h (1 Bft) W-SW 258 13,4 C 14,4 C 11,3 km/h (2 Bft)
17.05.2024 23:15 14,4 C 94 % 1008,5 hPa 0,0 l/m 5,8 km/h (2 Bft) W 265 13,4 C 14,4 C 11,3 km/h (2 Bft)
17.05.2024 23:10 14,4 C 94 % 1008,5 hPa 0,0 l/m 4,7 km/h (1 Bft) W 263 13,4 C 14,4 C 11,3 km/h (2 Bft)
17.05.2024 23:05 14,5 C 94 % 1008,5 hPa 0,0 l/m 4,7 km/h (1 Bft) W 262 13,5 C 14,5 C 9,7 km/h (2 Bft)
17.05.2024 23:00 14,6 C 94 % 1008,4 hPa 0,0 l/m 3,4 km/h (1 Bft) W-SW 255 13,6 C 14,6 C 8,0 km/h (2 Bft)
17.05.2024 22:55 14,6 C 94 % 1008,5 hPa 0,0 l/m 3,4 km/h (1 Bft) W 261 13,6 C 14,6 C 6,4 km/h (2 Bft)
17.05.2024 22:50 14,6 C 93 % 1008,6 hPa 0,0 l/m 4,2 km/h (1 Bft) W 262 13,5 C 14,6 C 9,7 km/h (2 Bft)
17.05.2024 22:45 14,6 C 93 % 1008,5 hPa 0,0 l/m 5,5 km/h (2 Bft) W 261 13,5 C 14,6 C 11,3 km/h (2 Bft)
17.05.2024 22:40 14,6 C 93 % 1008,5 hPa 0,0 l/m 5,0 km/h (1 Bft) W 267 13,5 C 14,6 C 12,9 km/h (3 Bft)
17.05.2024 22:35 14,5 C 93 % 1008,6 hPa 0,0 l/m 5,1 km/h (1 Bft) W 265 13,4 C 14,5 C 9,7 km/h (2 Bft)
17.05.2024 22:30 14,4 C 93 % 1008,6 hPa 0,0 l/m 4,6 km/h (1 Bft) W 264 13,3 C 14,4 C 11,3 km/h (2 Bft)
17.05.2024 22:25 14,4 C 93 % 1008,6 hPa 0,0 l/m 4,5 km/h (1 Bft) W 263 13,3 C 14,4 C 11,3 km/h (2 Bft)
17.05.2024 22:20 14,4 C 93 % 1008,6 hPa 0,0 l/m 4,4 km/h (1 Bft) W 267 13,3 C 14,4 C 6,4 km/h (2 Bft)
17.05.2024 22:15 14,4 C 93 % 1008,6 hPa 0,0 l/m 4,3 km/h (1 Bft) W 265 13,3 C 14,4 C 9,7 km/h (2 Bft)
17.05.2024 22:10 14,5 C 93 % 1008,5 hPa 0,0 l/m 4,3 km/h (1 Bft) W 264 13,4 C 14,5 C 9,7 km/h (2 Bft)
17.05.2024 22:05 14,6 C 93 % 1008,6 hPa 0,0 l/m 3,4 km/h (1 Bft) W 264 13,5 C 14,6 C 6,4 km/h (2 Bft)
17.05.2024 22:00 14,6 C 93 % 1008,5 hPa 0,0 l/m 3,2 km/h (1 Bft) W 263 13,5 C 14,6 C 9,7 km/h (2 Bft)
17.05.2024 21:55 14,7 C 93 % 1008,5 hPa 0,0 l/m 4,4 km/h (1 Bft) W 261 13,6 C 14,7 C 9,7 km/h (2 Bft)
17.05.2024 21:45 14,8 C 93 % 1008,5 hPa 0,0 l/m 3,2 km/h (1 Bft) W-SW 247 13,7 C 14,8 C 6,4 km/h (2 Bft)
17.05.2024 21:40 14,8 C 93 % 1008,4 hPa 0,0 l/m 4,8 km/h (1 Bft) W-SW 247 13,7 C 14,8 C 8,0 km/h (2 Bft)
17.05.2024 21:35 14,8 C 93 % 1008,4 hPa 0,0 l/m 3,2 km/h (1 Bft) W-SW 247 13,7 C 14,8 C 6,4 km/h (2 Bft)
17.05.2024 21:30 14,9 C 93 % 1008,4 hPa 0,0 l/m 3,2 km/h (1 Bft) W-SW 247 13,8 C 14,9 C 8,0 km/h (2 Bft)
17.05.2024 21:25 15,1 C 92 % 1008,3 hPa 0,0 l/m 4,8 km/h (1 Bft) W-SW 247 13,8 C 15,1 C 8,0 km/h (2 Bft)
17.05.2024 21:20 15,2 C 92 % 1008,3 hPa 0,0 l/m 3,2 km/h (1 Bft) S-SO 157 13,9 C 15,2 C 6,4 km/h (2 Bft)
17.05.2024 21:15 15,3 C 92 % 1008,4 hPa 0,0 l/m 1,6 km/h (1 Bft) S-SO 157 14,0 C 15,3 C 6,4 km/h (2 Bft)
17.05.2024 21:10 15,4 C 92 % 1008,3 hPa 0,0 l/m 0,0 km/h (0 Bft) S-SO 157 14,1 C 15,4 C 3,2 km/h (1 Bft)
17.05.2024 21:05 15,5 C 92 % 1008,3 hPa 0,0 l/m 1,6 km/h (1 Bft) S-SO 157 14,2 C 15,5 C 6,4 km/h (2 Bft)
17.05.2024 21:00 15,5 C 91 % 1008,1 hPa 0,0 l/m 1,6 km/h (1 Bft) S-SO 157 14,0 C 15,5 C 3,2 km/h (1 Bft)
17.05.2024 21:45 14,8 C 93 % 1008,4 hPa 0,0 l/m 3,6 km/h (1 Bft) W-SW 258 13,7 C 14,8 C 6,4 km/h (2 Bft)
17.05.2024 21:40 14,8 C 93 % 1008,4 hPa 0,0 l/m 4,2 km/h (1 Bft) W-SW 256 13,7 C 14,8 C 8,0 km/h (2 Bft)
17.05.2024 21:35 14,9 C 93 % 1008,4 hPa 0,0 l/m 3,5 km/h (1 Bft) W-SW 249 13,8 C 14,9 C 6,4 km/h (2 Bft)
17.05.2024 21:30 14,9 C 92 % 1008,3 hPa 0,0 l/m 4,2 km/h (1 Bft) W-SW 249 13,6 C 14,9 C 8,0 km/h (2 Bft)
17.05.2024 21:25 15,1 C 92 % 1008,3 hPa 0,0 l/m 4,6 km/h (1 Bft) W-SW 254 13,8 C 15,1 C 8,0 km/h (2 Bft)
17.05.2024 21:20 15,3 C 92 % 1008,2 hPa 0,0 l/m 2,1 km/h (1 Bft) S 185 14,0 C 15,3 C 6,4 km/h (2 Bft)
17.05.2024 21:15 15,4 C 92 % 1008,3 hPa 0,0 l/m 1,2 km/h (1 Bft) S-SO 165 14,1 C 15,4 C 6,4 km/h (2 Bft)
17.05.2024 21:10 15,4 C 92 % 1008,3 hPa 0,0 l/m 1,1 km/h (1 Bft) S-SO 165 14,1 C 15,4 C 3,2 km/h (1 Bft)
17.05.2024 21:05 15,5 C 92 % 1008,3 hPa 0,0 l/m 1,5 km/h (1 Bft) S-SO 165 14,2 C 15,5 C 6,4 km/h (2 Bft)
17.05.2024 21:00 15,5 C 91 % 1008,3 hPa 0,0 l/m 1,7 km/h (1 Bft) S-SO 164 14,0 C 15,5 C 3,2 km/h (1 Bft)
17.05.2024 20:55 15,6 C 91 % 1008,2 hPa 0,0 l/m 2,2 km/h (1 Bft) S-SO 164 14,1 C 15,6 C 6,4 km/h (2 Bft)
17.05.2024 20:50 15,6 C 91 % 1008,2 hPa 0,0 l/m 1,5 km/h (1 Bft) S-SO 163 14,1 C 15,6 C 6,4 km/h (2 Bft)
17.05.2024 20:45 15,7 C 90 % 1008,2 hPa 0,0 l/m 1,5 km/h (1 Bft) O 96 14,1 C 15,7 C 3,2 km/h (1 Bft)
17.05.2024 20:40 15,7 C 90 % 1008,1 hPa 0,0 l/m 2,7 km/h (1 Bft) O 96 14,1 C 15,7 C 6,4 km/h (2 Bft)
17.05.2024 20:35 15,7 C 90 % 1008,1 hPa 0,0 l/m 2,3 km/h (1 Bft) O 93 14,1 C 15,7 C 4,8 km/h (1 Bft)
17.05.2024 20:30 15,8 C 90 % 1008,1 hPa 0,0 l/m 2,2 km/h (1 Bft) O 90 14,2 C 15,8 C 4,8 km/h (1 Bft)
17.05.2024 20:25 15,8 C 90 % 1008,1 hPa 0,0 l/m 0,8 km/h (0 Bft) O 90 14,2 C 15,8 C 3,2 km/h (1 Bft)
17.05.2024 20:20 15,8 C 90 % 1008,1 hPa 0,0 l/m 0,8 km/h (0 Bft) O 90 14,2 C 15,8 C 3,2 km/h (1 Bft)
17.05.2024 20:15 15,8 C 90 % 1007,9 hPa 0,0 l/m 1,4 km/h (1 Bft) O 90 14,2 C 15,8 C 3,2 km/h (1 Bft)
17.05.2024 20:10 15,8 C 90 % 1007,9 hPa 0,0 l/m 1,4 km/h (1 Bft) O 90 14,2 C 15,8 C 3,2 km/h (1 Bft)
17.05.2024 20:05 15,9 C 90 % 1007,9 hPa 0,0 l/m 0,8 km/h (0 Bft) O 90 14,3 C 15,9 C 3,2 km/h (1 Bft)
17.05.2024 20:00 15,9 C 91 % 1008,0 hPa 0,0 l/m 0,4 km/h (0 Bft) O 90 14,4 C 15,9 C 3,2 km/h (1 Bft)
17.05.2024 19:55 15,9 C 91 % 1007,9 hPa 0,0 l/m 1,0 km/h (0 Bft) O 89 14,4 C 15,9 C 4,8 km/h (1 Bft)
17.05.2024 19:50 15,9 C 90 % 1007,9 hPa 0,0 l/m 1,9 km/h (1 Bft) O 89 14,3 C 15,9 C 6,4 km/h (2 Bft)
17.05.2024 19:45 16,0 C 90 % 1007,8 hPa 0,0 l/m 1,5 km/h (1 Bft) O 83 14,4 C 16,0 C 4,8 km/h (1 Bft)
17.05.2024 19:40 16,1 C 90 % 1007,8 hPa 0,0 l/m 0,0 km/h (0 Bft) O 83 14,5 C 16,1 C 0,0 km/h (0 Bft)
17.05.2024 19:35 16,1 C 90 % 1007,9 hPa 0,0 l/m 0,0 km/h (0 Bft) O 83 14,5 C 16,1 C 0,0 km/h (0 Bft)
17.05.2024 19:30 16,1 C 89 % 1007,8 hPa 0,0 l/m 0,0 km/h (0 Bft) O 83 14,3 C 16,1 C 0,0 km/h (0 Bft)
17.05.2024 19:25 16,1 C 89 % 1007,8 hPa 0,0 l/m 0,0 km/h (0 Bft) O 82 14,3 C 16,1 C 0,0 km/h (0 Bft)
17.05.2024 19:20 16,2 C 89 % 1007,8 hPa 0,0 l/m 0,0 km/h (0 Bft) O 82 14,4 C 16,2 C 0,0 km/h (0 Bft)
17.05.2024 19:10 16,3 C 89 % 1007,8 hPa 0,0 l/m 0,0 km/h (0 Bft) O 82 14,5 C 16,3 C 0,0 km/h (0 Bft)
17.05.2024 19:05 16,3 C 88 % 1007,7 hPa 0,0 l/m 0,0 km/h (0 Bft) O 82 14,3 C 16,3 C 0,0 km/h (0 Bft)
17.05.2024 19:00 16,4 C 88 % 1007,7 hPa 0,0 l/m 0,0 km/h (0 Bft) O 82 14,4 C 16,4 C 0,0 km/h (0 Bft)
17.05.2024 18:55 16,4 C 88 % 1007,7 hPa 0,0 l/m 0,0 km/h (0 Bft) O 82 14,4 C 16,4 C 0,0 km/h (0 Bft)
17.05.2024 18:50 16,6 C 89 % 1007,7 hPa 0,0 l/m 0,0 km/h (0 Bft) O 82 14,8 C 16,6 C 0,0 km/h (0 Bft)
17.05.2024 18:45 16,6 C 88 % 1007,6 hPa 0,0 l/m 0,0 km/h (0 Bft) O 82 14,6 C 16,6 C 0,0 km/h (0 Bft)
17.05.2024 18:40 16,6 C 88 % 1007,6 hPa 0,0 l/m 0,0 km/h (0 Bft) O 82 14,6 C 16,6 C 0,0 km/h (0 Bft)
17.05.2024 18:35 16,6 C 88 % 1007,6 hPa 0,0 l/m 0,0 km/h (0 Bft) O 82 14,6 C 16,6 C 0,0 km/h (0 Bft)
17.05.2024 18:30 16,5 C 88 % 1007,6 hPa 0,0 l/m 0,0 km/h (0 Bft) O 82 14,5 C 16,5 C 0,0 km/h (0 Bft)
17.05.2024 18:25 16,4 C 88 % 1007,6 hPa 0,0 l/m 0,0 km/h (0 Bft) O 82 14,4 C 16,4 C 0,0 km/h (0 Bft)
17.05.2024 18:20 16,4 C 88 % 1007,6 hPa 0,0 l/m 0,0 km/h (0 Bft) O 82 14,4 C 16,4 C 0,0 km/h (0 Bft)
17.05.2024 18:15 16,4 C 88 % 1007,6 hPa 0,0 l/m 0,0 km/h (0 Bft) O 82 14,4 C 16,4 C 0,0 km/h (0 Bft)
17.05.2024 18:10 16,4 C 89 % 1007,5 hPa 0,0 l/m 0,0 km/h (0 Bft) O 82 14,6 C 16,4 C 0,0 km/h (0 Bft)
17.05.2024 18:05 16,3 C 88 % 1007,5 hPa 0,0 l/m 0,0 km/h (0 Bft) O 82 14,3 C 16,3 C 0,0 km/h (0 Bft)
17.05.2024 18:00 16,3 C 88 % 1007,4 hPa 0,0 l/m 0,0 km/h (0 Bft) O 82 14,3 C 16,3 C 0,0 km/h (0 Bft)
17.05.2024 17:55 16,3 C 89 % 1007,5 hPa 0,0 l/m 0,4 km/h (0 Bft) O 82 14,5 C 16,3 C 3,2 km/h (1 Bft)
17.05.2024 17:50 16,3 C 90 % 1007,5 hPa 0,0 l/m 0,8 km/h (0 Bft) O 82 14,7 C 16,3 C 3,2 km/h (1 Bft)
17.05.2024 17:45 16,3 C 91 % 1007,5 hPa 0,0 l/m 1,9 km/h (1 Bft) O 82 14,8 C 16,3 C 6,4 km/h (2 Bft)
17.05.2024 17:40 16,3 C 92 % 1007,5 hPa 0,0 l/m 0,0 km/h (0 Bft) O-NO 65 15,0 C 16,3 C 0,0 km/h (0 Bft)
17.05.2024 17:35 16,3 C 92 % 1007,5 hPa 0,0 l/m 0,4 km/h (0 Bft) O-NO 65 15,0 C 16,3 C 3,2 km/h (1 Bft)
17.05.2024 17:30 16,3 C 93 % 1007,4 hPa 0,0 l/m 0,4 km/h (0 Bft) O-NO 64 15,2 C 16,3 C 3,2 km/h (1 Bft)
17.05.2024 17:25 16,3 C 94 % 1007,3 hPa 0,0 l/m 0,2 km/h (0 Bft) O-NO 63 15,3 C 16,3 C 1,6 km/h (1 Bft)
17.05.2024 17:20 16,4 C 93 % 1007,3 hPa 0,0 l/m 0,6 km/h (0 Bft) O-NO 63 15,3 C 16,4 C 4,8 km/h (1 Bft)
17.05.2024 17:15 16,4 C 94 % 1007,5 hPa 0,0 l/m 1,1 km/h (1 Bft) O-NO 62 15,4 C 16,4 C 4,8 km/h (1 Bft)
17.05.2024 17:10 16,4 C 94 % 1007,5 hPa 0,0 l/m 1,7 km/h (1 Bft) O-NO 57 15,4 C 16,4 C 4,8 km/h (1 Bft)
17.05.2024 17:05 16,4 C 94 % 1007,3 hPa 0,0 l/m 0,0 km/h (0 Bft) NW 323 15,4 C 16,4 C 0,0 km/h (0 Bft)
17.05.2024 17:00 16,4 C 94 % 1007,2 hPa 0,0 l/m 0,0 km/h (0 Bft) NW 320 15,4 C 16,4 C 0,0 km/h (0 Bft)
17.05.2024 16:55 16,4 C 94 % 1007,2 hPa 0,0 l/m 0,0 km/h (0 Bft) NW 320 15,4 C 16,4 C 0,0 km/h (0 Bft)
17.05.2024 16:50 16,3 C 94 % 1007,2 hPa 0,0 l/m 0,0 km/h (0 Bft) NW 320 15,3 C 16,3 C 0,0 km/h (0 Bft)
17.05.2024 16:45 16,3 C 94 % 1007,2 hPa 0,0 l/m 0,0 km/h (0 Bft) NW 320 15,3 C 16,3 C 0,0 km/h (0 Bft)
17.05.2024 16:40 16,3 C 94 % 1007,2 hPa 0,0 l/m 0,0 km/h (0 Bft) NW 320 15,3 C 16,3 C 0,0 km/h (0 Bft)
17.05.2024 16:35 16,3 C 94 % 1007,2 hPa 0,0 l/m 0,0 km/h (0 Bft) NW 320 15,3 C 16,3 C 0,0 km/h (0 Bft)
17.05.2024 16:30 16,2 C 95 % 1007,2 hPa 0,0 l/m 0,2 km/h (0 Bft) NW 319 15,4 C 16,2 C 3,2 km/h (1 Bft)
17.05.2024 16:25 16,2 C 95 % 1007,2 hPa 0,0 l/m 1,6 km/h (1 Bft) NW 320 15,4 C 16,2 C 4,8 km/h (1 Bft)
17.05.2024 16:20 16,2 C 95 % 1007,1 hPa 0,0 l/m 0,8 km/h (0 Bft) NW 318 15,4 C 16,2 C 3,2 km/h (1 Bft)
17.05.2024 16:15 16,2 C 95 % 1007,1 hPa 0,0 l/m 0,7 km/h (0 Bft) NW 313 15,4 C 16,2 C 3,2 km/h (1 Bft)
17.05.2024 16:10 16,1 C 95 % 1007,1 hPa 0,0 l/m 1,9 km/h (1 Bft) NW 313 15,3 C 16,1 C 3,2 km/h (1 Bft)
17.05.2024 16:05 15,9 C 95 % 1007,1 hPa 0,0 l/m 2,5 km/h (1 Bft) NW 316 15,1 C 15,9 C 4,8 km/h (1 Bft)
17.05.2024 16:00 15,9 C 95 % 1007,1 hPa 0,0 l/m 1,8 km/h (1 Bft) NW 315 15,1 C 15,9 C 4,8 km/h (1 Bft)
17.05.2024 15:55 15,9 C 95 % 1007,2 hPa 0,0 l/m 2,7 km/h (1 Bft) NW 315 15,1 C 15,9 C 6,4 km/h (2 Bft)
17.05.2024 15:50 15,8 C 95 % 1007,1 hPa 0,0 l/m 1,6 km/h (1 Bft) NW 318 15,0 C 15,8 C 6,4 km/h (2 Bft)
17.05.2024 15:45 15,8 C 95 % 1007,2 hPa 0,0 l/m 2,0 km/h (1 Bft) NW 317 15,0 C 15,8 C 4,8 km/h (1 Bft)
17.05.2024 15:40 15,7 C 95 % 1007,2 hPa 0,0 l/m 2,9 km/h (1 Bft) NW 314 14,9 C 15,7 C 6,4 km/h (2 Bft)
17.05.2024 15:35 15,7 C 95 % 1007,2 hPa 0,0 l/m 3,9 km/h (1 Bft) NW 313 14,9 C 15,7 C 8,0 km/h (2 Bft)
17.05.2024 15:30 15,7 C 95 % 1007,1 hPa 0,0 l/m 3,5 km/h (1 Bft) NW 312 14,9 C 15,7 C 6,4 km/h (2 Bft)
17.05.2024 15:25 15,7 C 95 % 1007,2 hPa 0,0 l/m 3,1 km/h (1 Bft) NW 311 14,9 C 15,7 C 11,3 km/h (2 Bft)
17.05.2024 15:20 15,6 C 95 % 1007,2 hPa 0,0 l/m 3,2 km/h (1 Bft) NW 310 14,8 C 15,6 C 6,4 km/h (2 Bft)
17.05.2024 15:15 15,6 C 95 % 1007,3 hPa 0,0 l/m 3,0 km/h (1 Bft) NW 311 14,8 C 15,6 C 8,0 km/h (2 Bft)
17.05.2024 15:10 15,5 C 95 % 1007,3 hPa 0,0 l/m 3,2 km/h (1 Bft) NW 321 14,7 C 15,5 C 9,7 km/h (2 Bft)
17.05.2024 15:05 15,5 C 95 % 1007,2 hPa 0,0 l/m 2,8 km/h (1 Bft) NW 306 14,7 C 15,5 C 6,4 km/h (2 Bft)
17.05.2024 15:00 15,5 C 95 % 1007,1 hPa 0,0 l/m 3,0 km/h (1 Bft) NW 314 14,7 C 15,5 C 4,8 km/h (1 Bft)
17.05.2024 14:55 15,4 C 95 % 1007,2 hPa 0,0 l/m 3,7 km/h (1 Bft) NW 314 14,6 C 15,4 C 6,4 km/h (2 Bft)
17.05.2024 14:50 15,4 C 95 % 1007,2 hPa 0,0 l/m 4,6 km/h (1 Bft) NW 308 14,6 C 15,4 C 12,9 km/h (3 Bft)
17.05.2024 14:45 15,4 C 95 % 1007,2 hPa 0,0 l/m 3,5 km/h (1 Bft) NW 317 14,6 C 15,4 C 8,0 km/h (2 Bft)
17.05.2024 14:40 15,3 C 95 % 1007,3 hPa 0,0 l/m 3,6 km/h (1 Bft) NW 308 14,5 C 15,3 C 8,0 km/h (2 Bft)
17.05.2024 14:35 15,3 C 95 % 1007,2 hPa 0,0 l/m 4,3 km/h (1 Bft) N-NW 329 14,5 C 15,3 C 11,3 km/h (2 Bft)
17.05.2024 14:30 15,3 C 95 % 1007,3 hPa 0,0 l/m 3,7 km/h (1 Bft) W-NW 300 14,5 C 15,3 C 12,9 km/h (3 Bft)
17.05.2024 14:25 15,3 C 95 % 1007,2 hPa 0,0 l/m 4,3 km/h (1 Bft) N-NW 333 14,5 C 15,3 C 9,7 km/h (2 Bft)
17.05.2024 14:20 15,2 C 95 % 1007,2 hPa 0,0 l/m 4,6 km/h (1 Bft) N-NW 329 14,4 C 15,2 C 9,7 km/h (2 Bft)
17.05.2024 14:15 15,2 C 95 % 1007,2 hPa 0,0 l/m 4,5 km/h (1 Bft) N-NW 335 14,4 C 15,2 C 8,0 km/h (2 Bft)
17.05.2024 14:10 15,2 C 95 % 1007,2 hPa 0,0 l/m 3,3 km/h (1 Bft) NW 323 14,4 C 15,2 C 8,0 km/h (2 Bft)
17.05.2024 14:05 15,1 C 95 % 1007,3 hPa 0,0 l/m 4,0 km/h (1 Bft) NW 321 14,3 C 15,1 C 8,0 km/h (2 Bft)
17.05.2024 14:00 15,1 C 95 % 1007,3 hPa 0,0 l/m 4,9 km/h (1 Bft) NW 326 14,3 C 15,1 C 9,7 km/h (2 Bft)
17.05.2024 13:55 15,1 C 95 % 1007,3 hPa 0,0 l/m 3,6 km/h (1 Bft) NW 323 14,3 C 15,1 C 8,0 km/h (2 Bft)
17.05.2024 13:50 15,1 C 95 % 1007,3 hPa 0,0 l/m 4,3 km/h (1 Bft) NW 319 14,3 C 15,1 C 12,9 km/h (3 Bft)
17.05.2024 13:45 14,9 C 95 % 1007,3 hPa 0,0 l/m 5,2 km/h (1 Bft) NW 325 14,1 C 14,9 C 12,9 km/h (3 Bft)
17.05.2024 13:40 15,0 C 95 % 1007,3 hPa 0,0 l/m 6,2 km/h (2 Bft) N-NW 336 14,2 C 15,0 C 14,5 km/h (3 Bft)
17.05.2024 13:35 15,0 C 95 % 1007,2 hPa 0,0 l/m 4,7 km/h (1 Bft) NW 317 14,2 C 15,0 C 9,7 km/h (2 Bft)
17.05.2024 13:30 14,9 C 95 % 1007,2 hPa 0,0 l/m 4,6 km/h (1 Bft) NW 319 14,1 C 14,9 C 9,7 km/h (2 Bft)
17.05.2024 13:25 14,9 C 95 % 1007,2 hPa 0,0 l/m 6,0 km/h (2 Bft) NW 326 14,1 C 14,9 C 12,9 km/h (3 Bft)
17.05.2024 13:20 14,9 C 94 % 1007,1 hPa 0,0 l/m 6,2 km/h (2 Bft) NW 311 13,9 C 14,9 C 14,5 km/h (3 Bft)
17.05.2024 13:15 14,9 C 95 % 1007,2 hPa 0,0 l/m 5,1 km/h (1 Bft) W-NW 300 14,1 C 14,9 C 14,5 km/h (3 Bft)
17.05.2024 13:10 14,9 C 94 % 1007,2 hPa 0,0 l/m 5,8 km/h (2 Bft) NW 317 13,9 C 14,9 C 11,3 km/h (2 Bft)
17.05.2024 13:05 14,9 C 94 % 1007,1 hPa 0,0 l/m 5,6 km/h (2 Bft) N-NW 333 13,9 C 14,9 C 12,9 km/h (3 Bft)
17.05.2024 13:00 14,9 C 95 % 1007,1 hPa 0,0 l/m 6,0 km/h (2 Bft) W 281 14,1 C 14,9 C 14,5 km/h (3 Bft)
17.05.2024 12:55 14,8 C 95 % 1007,0 hPa 0,2 l/m 6,1 km/h (2 Bft) NW 321 14,0 C 14,8 C 14,5 km/h (3 Bft)
17.05.2024 12:50 14,7 C 94 % 1007,0 hPa 0,0 l/m 5,9 km/h (2 Bft) NW 307 13,7 C 14,7 C 12,9 km/h (3 Bft)
17.05.2024 12:45 14,8 C 95 % 1007,0 hPa 0,0 l/m 5,7 km/h (2 Bft) NW 306 14,0 C 14,8 C 12,9 km/h (3 Bft)
17.05.2024 12:40 14,7 C 94 % 1007,1 hPa 0,2 l/m 7,0 km/h (2 Bft) NW 317 13,7 C 14,4 C 16,1 km/h (3 Bft)
17.05.2024 12:35 14,7 C 94 % 1007,1 hPa 0,0 l/m 7,1 km/h (2 Bft) NW 321 13,7 C 14,3 C 14,5 km/h (3 Bft)
17.05.2024 12:30 14,7 C 94 % 1007,1 hPa 0,2 l/m 6,2 km/h (2 Bft) NW 318 13,7 C 14,7 C 12,9 km/h (3 Bft)
17.05.2024 12:25 14,7 C 94 % 1007,0 hPa 0,0 l/m 5,3 km/h (1 Bft) NW 318 13,7 C 14,7 C 12,9 km/h (3 Bft)
17.05.2024 12:20 14,7 C 93 % 1007,0 hPa 0,0 l/m 4,3 km/h (1 Bft) NW 313 13,6 C 14,7 C 8,0 km/h (2 Bft)
17.05.2024 12:15 14,7 C 93 % 1007,1 hPa 0,0 l/m 4,7 km/h (1 Bft) N 351 13,6 C 14,7 C 11,3 km/h (2 Bft)
17.05.2024 12:10 14,7 C 94 % 1007,0 hPa 0,0 l/m 3,0 km/h (1 Bft) N 9 13,7 C 14,7 C 11,3 km/h (2 Bft)
17.05.2024 12:05 14,7 C 93 % 1006,9 hPa 0,0 l/m 4,1 km/h (1 Bft) NW 311 13,6 C 14,7 C 8,0 km/h (2 Bft)
17.05.2024 12:00 14,7 C 93 % 1007,0 hPa 0,0 l/m 5,2 km/h (1 Bft) NW 326 13,6 C 14,7 C 14,5 km/h (3 Bft)
17.05.2024 11:55 14,7 C 94 % 1007,0 hPa 0,0 l/m 3,5 km/h (1 Bft) W-NW 303 13,7 C 14,7 C 11,3 km/h (2 Bft)
17.05.2024 11:50 14,7 C 94 % 1007,1 hPa 0,0 l/m 2,9 km/h (1 Bft) N-NO 15 13,7 C 14,7 C 11,3 km/h (2 Bft)
17.05.2024 11:45 14,7 C 94 % 1007,0 hPa 0,0 l/m 4,3 km/h (1 Bft) W-NW 292 13,7 C 14,7 C 11,3 km/h (2 Bft)
17.05.2024 11:40 14,7 C 94 % 1006,9 hPa 0,0 l/m 3,0 km/h (1 Bft) N 355 13,7 C 14,7 C 8,0 km/h (2 Bft)
17.05.2024 11:35 14,6 C 94 % 1006,9 hPa 0,0 l/m 6,1 km/h (2 Bft) N-NO 15 13,6 C 14,6 C 14,5 km/h (3 Bft)
17.05.2024 11:30 14,6 C 94 % 1006,8 hPa 0,0 l/m 5,5 km/h (2 Bft) N-NO 31 13,6 C 14,6 C 12,9 km/h (3 Bft)
17.05.2024 11:25 14,6 C 95 % 1006,7 hPa 0,0 l/m 5,2 km/h (1 Bft) W-NW 295 13,8 C 14,6 C 14,5 km/h (3 Bft)
17.05.2024 11:20 14,5 C 95 % 1006,7 hPa 0,0 l/m 6,2 km/h (2 Bft) NW 326 13,7 C 14,5 C 19,3 km/h (3 Bft)
17.05.2024 11:15 14,5 C 95 % 1006,7 hPa 0,0 l/m 7,2 km/h (2 Bft) W-NW 303 13,7 C 14,0 C 16,1 km/h (3 Bft)
17.05.2024 11:10 14,4 C 95 % 1006,7 hPa 0,0 l/m 5,7 km/h (2 Bft) NW 321 13,6 C 14,4 C 12,9 km/h (3 Bft)
17.05.2024 11:05 14,4 C 94 % 1006,9 hPa 0,0 l/m 7,0 km/h (2 Bft) W-NW 295 13,4 C 14,1 C 17,7 km/h (3 Bft)
17.05.2024 11:00 14,4 C 95 % 1006,7 hPa 0,0 l/m 6,8 km/h (2 Bft) NW 311 13,6 C 14,2 C 16,1 km/h (3 Bft)
17.05.2024 10:55 14,4 C 95 % 1006,7 hPa 0,0 l/m 8,2 km/h (2 Bft) NW 320 13,6 C 13,4 C 16,1 km/h (3 Bft)
17.05.2024 10:50 14,4 C 95 % 1006,7 hPa 0,0 l/m 5,3 km/h (1 Bft) NW 315 13,6 C 14,4 C 16,1 km/h (3 Bft)
17.05.2024 10:45 14,4 C 95 % 1006,6 hPa 0,0 l/m 7,9 km/h (2 Bft) W-NW 295 13,6 C 13,5 C 20,9 km/h (4 Bft)
17.05.2024 10:40 14,3 C 95 % 1006,6 hPa 0,0 l/m 8,8 km/h (2 Bft) N-NW 327 13,5 C 12,9 C 16,1 km/h (3 Bft)
17.05.2024 10:35 14,3 C 95 % 1006,6 hPa 0,0 l/m 8,8 km/h (2 Bft) NW 325 13,5 C 12,9 C 17,7 km/h (3 Bft)
17.05.2024 10:30 14,3 C 95 % 1006,6 hPa 0,0 l/m 8,6 km/h (2 Bft) N-NW 332 13,5 C 13,0 C 16,1 km/h (3 Bft)
17.05.2024 10:25 14,3 C 95 % 1006,7 hPa 0,0 l/m 8,6 km/h (2 Bft) NW 315 13,5 C 13,0 C 16,1 km/h (3 Bft)
17.05.2024 10:20 14,2 C 95 % 1006,6 hPa 0,0 l/m 6,1 km/h (2 Bft) N-NW 328 13,4 C 14,2 C 16,1 km/h (3 Bft)
17.05.2024 10:15 14,2 C 95 % 1006,4 hPa 0,0 l/m 8,4 km/h (2 Bft) N-NW 340 13,4 C 13,0 C 17,7 km/h (3 Bft)
17.05.2024 10:10 14,1 C 95 % 1006,5 hPa 0,0 l/m 8,0 km/h (2 Bft) N 355 13,3 C 13,2 C 16,1 km/h (3 Bft)
17.05.2024 10:05 14,1 C 95 % 1006,5 hPa 0,0 l/m 8,6 km/h (2 Bft) NW 309 13,3 C 12,8 C 17,7 km/h (3 Bft)
17.05.2024 10:00 14,1 C 95 % 1006,5 hPa 0,0 l/m 6,6 km/h (2 Bft) W-NW 284 13,3 C 14,0 C 17,7 km/h (3 Bft)
17.05.2024 09:55 14,0 C 95 % 1006,6 hPa 0,0 l/m 8,5 km/h (2 Bft) N-NW 343 13,2 C 12,8 C 16,1 km/h (3 Bft)
17.05.2024 09:50 14,0 C 95 % 1006,6 hPa 0,0 l/m 6,2 km/h (2 Bft) NW 325 13,2 C 14,0 C 12,9 km/h (3 Bft)
17.05.2024 09:45 14,0 C 95 % 1006,6 hPa 0,0 l/m 7,9 km/h (2 Bft) NW 315 13,2 C 13,1 C 16,1 km/h (3 Bft)
17.05.2024 09:40 13,9 C 95 % 1006,6 hPa 0,0 l/m 8,0 km/h (2 Bft) N-NW 336 13,1 C 12,9 C 17,7 km/h (3 Bft)
17.05.2024 09:35 13,9 C 95 % 1006,6 hPa 0,0 l/m 5,9 km/h (2 Bft) N-NW 329 13,1 C 13,9 C 16,1 km/h (3 Bft)
17.05.2024 09:30 13,9 C 95 % 1006,7 hPa 0,0 l/m 5,9 km/h (2 Bft) N-NW 334 13,1 C 13,9 C 14,5 km/h (3 Bft)
17.05.2024 09:25 13,9 C 95 % 1006,7 hPa 0,0 l/m 7,9 km/h (2 Bft) NW 311 13,1 C 13,0 C 14,5 km/h (3 Bft)
17.05.2024 09:20 13,9 C 95 % 1006,7 hPa 0,0 l/m 6,1 km/h (2 Bft) NW 324 13,1 C 13,9 C 16,1 km/h (3 Bft)
17.05.2024 09:15 13,8 C 95 % 1006,7 hPa 0,0 l/m 6,8 km/h (2 Bft) NW 311 13,0 C 13,6 C 14,5 km/h (3 Bft)
17.05.2024 09:10 13,8 C 95 % 1006,8 hPa 0,0 l/m 6,4 km/h (2 Bft) N-NW 336 13,0 C 13,8 C 12,9 km/h (3 Bft)
17.05.2024 09:05 13,9 C 95 % 1006,7 hPa 0,0 l/m 5,8 km/h (2 Bft) NW 318 13,1 C 13,9 C 14,5 km/h (3 Bft)
17.05.2024 09:00 13,8 C 95 % 1006,8 hPa 0,0 l/m 6,8 km/h (2 Bft) W-NW 293 13,0 C 13,6 C 14,5 km/h (3 Bft)
17.05.2024 08:55 13,8 C 95 % 1006,8 hPa 0,0 l/m 6,7 km/h (2 Bft) NW 314 13,0 C 13,6 C 14,5 km/h (3 Bft)
17.05.2024 08:50 13,8 C 95 % 1006,9 hPa 0,0 l/m 5,3 km/h (1 Bft) N-NW 328 13,0 C 13,8 C 14,5 km/h (3 Bft)
17.05.2024 08:45 13,9 C 95 % 1006,8 hPa 0,0 l/m 5,9 km/h (2 Bft) N-NW 335 13,1 C 13,9 C 12,9 km/h (3 Bft)
17.05.2024 08:40 13,8 C 95 % 1006,9 hPa 0,0 l/m 4,9 km/h (1 Bft) N-NO 26 13,0 C 13,8 C 9,7 km/h (2 Bft)
17.05.2024 08:35 13,8 C 95 % 1006,9 hPa 0,0 l/m 5,8 km/h (2 Bft) N-NW 327 13,0 C 13,8 C 12,9 km/h (3 Bft)
17.05.2024 08:30 13,8 C 95 % 1006,8 hPa 0,0 l/m 4,7 km/h (1 Bft) W-NW 294 13,0 C 13,8 C 12,9 km/h (3 Bft)
17.05.2024 08:25 13,8 C 95 % 1006,8 hPa 0,0 l/m 4,9 km/h (1 Bft) NW 323 13,0 C 13,8 C 12,9 km/h (3 Bft)
17.05.2024 08:20 13,8 C 95 % 1006,9 hPa 0,0 l/m 4,6 km/h (1 Bft) NW 320 13,0 C 13,8 C 12,9 km/h (3 Bft)
17.05.2024 08:15 13,8 C 95 % 1006,8 hPa 0,0 l/m 4,1 km/h (1 Bft) W-NW 297 13,0 C 13,8 C 11,3 km/h (2 Bft)
17.05.2024 08:10 13,7 C 95 % 1006,8 hPa 0,0 l/m 4,8 km/h (1 Bft) NW 321 12,9 C 13,7 C 11,3 km/h (2 Bft)
17.05.2024 08:05 13,7 C 95 % 1006,9 hPa 0,0 l/m 4,7 km/h (1 Bft) W 281 12,9 C 13,7 C 9,7 km/h (2 Bft)
17.05.2024 08:00 13,6 C 95 % 1006,8 hPa 0,0 l/m 5,5 km/h (2 Bft) W 275 12,8 C 13,6 C 11,3 km/h (2 Bft)
17.05.2024 07:55 13,6 C 95 % 1006,8 hPa 0,0 l/m 5,4 km/h (2 Bft) NW 305 12,8 C 13,6 C 14,5 km/h (3 Bft)
17.05.2024 07:50 13,6 C 95 % 1006,7 hPa 0,0 l/m 5,6 km/h (2 Bft) W-NW 302 12,8 C 13,6 C 12,9 km/h (3 Bft)
17.05.2024 07:45 13,5 C 95 % 1006,7 hPa 0,0 l/m 5,8 km/h (2 Bft) N-NW 333 12,7 C 13,5 C 12,9 km/h (3 Bft)
17.05.2024 07:40 13,5 C 96 % 1006,7 hPa 0,0 l/m 6,7 km/h (2 Bft) NW 307 12,9 C 13,3 C 12,9 km/h (3 Bft)
17.05.2024 07:35 13,5 C 96 % 1006,6 hPa 0,0 l/m 6,2 km/h (2 Bft) W-NW 294 12,9 C 13,5 C 14,5 km/h (3 Bft)
17.05.2024 07:30 13,5 C 96 % 1006,8 hPa 0,0 l/m 6,1 km/h (2 Bft) W 270 12,9 C 13,5 C 12,9 km/h (3 Bft)
17.05.2024 07:25 13,5 C 96 % 1006,8 hPa 0,0 l/m 5,6 km/h (2 Bft) W-NW 294 12,9 C 13,5 C 12,9 km/h (3 Bft)
17.05.2024 07:20 13,4 C 96 % 1006,7 hPa 0,0 l/m 5,4 km/h (2 Bft) NW 304 12,8 C 13,4 C 12,9 km/h (3 Bft)
17.05.2024 07:15 13,4 C 96 % 1006,8 hPa 0,0 l/m 4,6 km/h (1 Bft) W-NW 302 12,8 C 13,4 C 8,0 km/h (2 Bft)
17.05.2024 07:10 13,4 C 96 % 1006,8 hPa 0,0 l/m 4,7 km/h (1 Bft) W-NW 290 12,8 C 13,4 C 11,3 km/h (2 Bft)
17.05.2024 07:05 13,4 C 96 % 1006,9 hPa 0,0 l/m 5,9 km/h (2 Bft) W-NW 289 12,8 C 13,4 C 12,9 km/h (3 Bft)
17.05.2024 07:00 13,4 C 96 % 1006,9 hPa 0,0 l/m 6,7 km/h (2 Bft) NW 320 12,8 C 13,2 C 9,7 km/h (2 Bft)
_ Min-Zeit 07:00 18:00 10:15 - 16:35 - - 07:45 09:55 16:35
Minimum _ 13,4 C 88 % 1006,4 hPa - 0,0 km/h (0 Bft) - - 12,7 C 12,8 C 0,0 km/h (0 Bft)
_ Max-Zeit 18:35 07:00 06:25 12:30 10:35 - - 16:55 18:35 10:45
Maximum _ 16,6 C 96 % 1010,4 hPa 0,2 l/m 8,8 km/h
NW (2 Bft)
- - 15,4 C 16,6 C 20,9 km/h
NW (4 Bft)
Durchschnitt _ 14,7 C 94 % 1007,9 hPa #1,2 l/m 3,8 km/h (1 Bft) W - 13,7 C 14,6 C 8,6 km/h (2 Bft)
www.klaudt.eu